Aérodrome :
LOGIN :

S'inscrire | Disclaimer

   EN    FR    IT 

 










Légende :    VFR   VFR Marginal   IFR   IFR Intensif   IFR Très Intensif
Visi : 
Plafond : 
>= 8 km
>= 3000ft
5 à 8 km
1000 à 3000 ft
1500m à 5 km
500 à 1000 ft
800 à 1500m
200 à 500 ft
< 800m
< 200 ft
Symboles :   Orages  Brouillard  Fortes neiges  Fortes précipitations  Vent > 20 kt
SIGMETs :   Divers  Orages  Givrage  Turbulence  Onde Orograph.  Cendres Volcan.







- Altitude de l'aérodrome : -11 ft
- Code IATA : AMS


EHAM - Amsterdam Schiphol

DERNIER METAR :
  • 171425Z 29010KT 250V320 9999 FEW045 23/15 Q1018 NOSIG

METARs EXPIRÉS :
  • 171355Z 26006KT 220V320 9999 FEW045 24/15 Q1018 NOSIG
  • 171325Z 30005KT 230V360 9999 FEW045 23/15 Q1018 NOSIG
  • 171255Z 20007KT 150V240 9999 FEW045 23/13 Q1018 NOSIG
  • 171225Z 19008KT 160V230 9999 FEW040 23/14 Q1019 NOSIG
  • 171155Z 19011KT 150V220 9999 FEW040 23/14 Q1019 BECMG 26008KT

TAF TAF EHAM
Valide du 17 à 12h jusqu'au 18 à 18h UTC


171055Z 1712/1818 19012KT 9999 SCT035
BECMG 1714/1717 31007KT
BECMG 1719/1722 VRB03KT CAVOK
BECMG 1815/1818 06008KT
Pas de NOTAMs connus pour ce terrain.



MET'MAP, la Météo Aéronautique d'un coup d'oeil ! - Copyright ORBIFLY Décembre 2007 - Disclaimer

ORBIFLY MET'MAP TEAM :

Programmation & Développement : Alexandra Zaïnal
Conception & Développement : Baudouin d'Aumeries
Co-Programmation & Développement : Marc-Olivier Méhu
Soutien technique & logistique : Manuel Goepfert

Contact : metmap@orbifly.com




SOURCES & CREDITS :

   NOAA